Time;durP1;ratioP1;P1;durP2;ratioP2;P2;SDS_P1;SDS_P2;PMS_P1;PMS_P2;Temp;Humidity;BMP_temperature;BMP_pressure;BME280_temperature;BME280_humidity;BME280_pressure;Samples;Min_cycle;Max_cycle;Signal;HPM_P1;HPM_P2
2023/08/10 00:01:24;;;;;;;11.60;10.50;;;;;;;12.88;100.00;98201.77;106590;1282;24461;-81
2023/08/10 00:03:51;;;;;;;11.90;10.80;;;;;;;12.85;100.00;98198.84;106530;1283;23059;-81
2023/08/10 00:06:20;;;;;;;14.20;12.80;;;;;;;12.82;100.00;98197.08;106543;1282;22539;-80
2023/08/10 00:08:49;;;;;;;12.90;11.70;;;;;;;12.77;100.00;98196.23;106609;1267;22537;-81
2023/08/10 00:11:18;;;;;;;13.10;11.70;;;;;;;12.75;100.00;98194.75;106699;1279;25392;-81
2023/08/10 00:13:46;;;;;;;13.30;12.10;;;;;;;12.77;100.00;98200.08;106738;1280;22793;-81
2023/08/10 00:16:14;;;;;;;13.80;12.40;;;;;;;12.76;100.00;98195.33;106746;1279;25320;-80
2023/08/10 00:18:42;;;;;;;13.70;12.40;;;;;;;12.76;100.00;98196.41;106703;1279;23431;-81
2023/08/10 00:21:10;;;;;;;14.80;12.30;;;;;;;12.74;100.00;98204.14;106774;1279;22862;-80
2023/08/10 00:23:39;;;;;;;11.40;12.10;;;;;;;12.74;100.00;98207.66;106713;1280;25350;-79
2023/08/10 00:26:08;;;;;;;15.20;13.70;;;;;;;12.70;100.00;98206.41;106610;1279;23205;-81
2023/08/10 00:28:36;;;;;;;14.70;13.20;;;;;;;12.66;100.00;98208.36;106608;1279;170924;-81
2023/08/10 00:31:04;;;;;;;15.80;14.40;;;;;;;12.61;100.00;98212.09;106775;1279;23815;-80
2023/08/10 00:33:33;;;;;;;15.30;13.70;;;;;;;12.57;100.00;98214.63;106735;1280;22508;-81
2023/08/10 00:36:08;;;;;;;15.70;13.80;;;;;;;12.55;100.00;98214.23;106734;1279;22566;-80
2023/08/10 00:38:40;;;;;;;14.90;13.50;;;;;;;12.54;100.00;98216.48;106679;1279;22713;-80
2023/08/10 00:41:09;;;;;;;14.40;12.90;;;;;;;12.52;100.00;98217.31;106719;1279;22667;-79
2023/08/10 00:43:37;;;;;;;15.10;13.40;;;;;;;12.50;100.00;98214.92;106385;1279;24265;-81
2023/08/10 00:46:05;;;;;;;15.80;13.70;;;;;;;12.50;100.00;98213.73;106666;1279;22617;-79
2023/08/10 00:48:34;;;;;;;15.00;13.50;;;;;;;12.49;100.00;98210.08;106470;1279;22538;-82
2023/08/10 00:51:02;;;;;;;16.90;13.00;;;;;;;12.53;100.00;98215.09;106594;1279;24518;-79
2023/08/10 00:53:30;;;;;;;14.60;13.30;;;;;;;12.55;100.00;98212.51;106436;1279;24374;-79
2023/08/10 00:55:59;;;;;;;16.40;14.90;;;;;;;12.54;100.00;98213.49;106462;1279;22549;-79
2023/08/10 00:58:30;;;;;;;16.20;14.60;;;;;;;12.52;100.00;98218.63;106449;1279;23962;-80
2023/08/10 01:00:58;;;;;;;17.10;15.50;;;;;;;12.48;100.00;98214.95;106455;1279;22650;-79
2023/08/10 01:03:26;;;;;;;14.80;13.40;;;;;;;12.47;100.00;98217.96;106481;1279;24224;-80
2023/08/10 01:07:09;;;;;;;16.40;14.50;;;;;;;12.46;100.00;98215.54;106418;1279;22577;-80
2023/08/10 01:11:37;;;;;;;18.10;16.40;;;;;;;12.47;100.00;98208.70;106117;1289;22658;-80
2023/08/10 01:15:59;;;;;;;18.90;17.20;;;;;;;12.43;100.00;98213.73;105817;1289;22620;-81
2023/08/10 01:20:29;;;;;;;20.00;18.00;;;;;;;12.39;100.00;98213.66;105216;1298;23205;-82
2023/08/10 01:24:38;;;;;;;19.90;17.90;;;;;;;12.36;100.00;98213.19;105113;1301;23427;-81
2023/08/10 01:28:51;;;;;;;18.50;16.70;;;;;;;12.34;100.00;98214.02;105201;1299;25787;-81
2023/08/10 01:33:20;;;;;;;17.60;16.10;;;;;;;12.40;100.00;98219.27;105374;1299;24483;-82
2023/08/10 01:37:11;;;;;;;17.20;15.50;;;;;;;12.47;100.00;98227.15;104028;1307;23383;-82
2023/08/10 01:41:20;;;;;;;20.20;20.00;;;;;;;12.45;100.00;98235.25;104524;1303;22561;-82
2023/08/10 01:45:12;;;;;;;22.00;19.90;;;;;;;12.28;100.00;98235.44;105255;1298;25569;-81
2023/08/10 01:48:08;;;;;;;21.00;19.10;;;;;;;12.21;100.00;98233.84;105390;1298;24407;-81
2023/08/10 01:50:40;;;;;;;22.20;20.20;;;;;;;12.16;100.00;98237.66;106265;1298;26589;-82
2023/08/10 01:53:12;;;;;;;22.90;20.80;;;;;;;12.12;100.00;98237.75;106367;1298;22561;-81
2023/08/10 01:55:41;;;;;;;21.50;19.40;;;;;;;12.11;100.00;98235.45;107833;1288;22634;-81
2023/08/10 01:58:09;;;;;;;23.80;21.60;;;;;;;12.11;100.00;98236.46;106970;1288;22739;-80
2023/08/10 02:00:39;;;;;;;22.70;20.50;;;;;;;12.12;100.00;98238.67;106671;1288;22765;-81
2023/08/10 02:03:07;;;;;;;23.20;21.20;;;;;;;12.12;100.00;98241.86;106082;1288;24269;-80
2023/08/10 02:05:35;;;;;;;24.70;22.40;;;;;;;12.10;100.00;98239.91;106058;1288;22536;-80
2023/08/10 02:08:04;;;;;;;25.60;23.10;;;;;;;12.08;100.00;98241.20;106125;1288;22652;-81
2023/08/10 02:10:33;;;;;;;26.50;24.30;;;;;;;12.07;100.00;98244.84;106357;1288;23601;-81
2023/08/10 02:13:01;;;;;;;29.10;26.20;;;;;;;12.03;100.00;98250.73;106587;1279;24234;-81
2023/08/10 02:15:29;;;;;;;27.50;25.20;;;;;;;12.00;100.00;98250.13;106812;1279;25349;-80
2023/08/10 02:17:57;;;;;;;29.20;26.40;;;;;;;11.99;100.00;98253.98;106686;1279;22543;-80
2023/08/10 02:20:25;;;;;;;30.30;27.20;;;;;;;12.00;100.00;98257.70;106983;1272;25275;-80
2023/08/10 02:22:54;;;;;;;30.30;27.50;;;;;;;11.99;100.00;98255.28;106801;1279;22534;-80
2023/08/10 02:25:22;;;;;;;28.20;25.50;;;;;;;11.99;100.00;98258.69;106826;1279;25487;-80
2023/08/10 02:27:50;;;;;;;28.30;25.20;;;;;;;12.00;100.00;98258.40;106489;1279;22540;-81
2023/08/10 02:30:19;;;;;;;28.20;25.60;;;;;;;11.98;100.00;98256.86;106485;1279;24202;-81
2023/08/10 02:32:49;;;;;;;26.60;24.20;;;;;;;11.98;100.00;98256.10;106673;1279;22625;-80
2023/08/10 02:35:17;;;;;;;27.20;24.60;;;;;;;12.00;100.00;98255.48;106852;1256;22534;-80
2023/08/10 02:37:45;;;;;;;35.10;31.70;;;;;;;12.01;100.00;98257.52;106437;1279;22778;-80
2023/08/10 02:40:14;;;;;;;31.00;28.00;;;;;;;11.96;100.00;98254.71;106567;1279;25302;-80
2023/08/10 02:42:42;;;;;;;29.60;26.90;;;;;;;11.93;100.00;98254.65;106835;1279;24281;-80
2023/08/10 02:45:12;;;;;;;31.20;28.30;;;;;;;11.89;100.00;98257.85;106466;1279;24324;-81
2023/08/10 02:47:40;;;;;;;31.60;28.40;;;;;;;11.82;100.00;98258.86;106769;1279;22996;-80
2023/08/10 02:50:11;;;;;;;30.10;27.30;;;;;;;11.78;100.00;98257.52;106492;1279;22549;-81
2023/08/10 02:52:40;;;;;;;31.30;28.40;;;;;;;11.76;100.00;98254.59;106839;1279;24256;-81
2023/08/10 02:55:10;;;;;;;30.70;27.80;;;;;;;11.76;100.00;98253.35;106485;1279;24206;-79
2023/08/10 02:57:39;;;;;;;30.00;27.00;;;;;;;11.75;100.00;98255.73;106775;1279;22535;-79
2023/08/10 03:00:07;;;;;;;31.10;28.00;;;;;;;11.69;100.00;98255.31;106743;1280;22544;-80
2023/08/10 03:02:36;;;;;;;33.80;30.40;;;;;;;11.65;100.00;98260.35;106788;1279;22534;-79
2023/08/10 03:05:06;;;;;;;34.40;31.20;;;;;;;11.63;100.00;98261.69;106775;1279;25254;-80
2023/08/10 03:07:36;;;;;;;31.60;28.70;;;;;;;11.60;100.00;98259.48;106949;1279;23900;-80
2023/08/10 03:10:05;;;;;;;31.20;28.30;;;;;;;11.57;100.00;98262.02;106699;1279;24384;-81
2023/08/10 03:12:38;;;;;;;34.50;31.30;;;;;;;11.54;100.00;98265.56;106784;1279;22537;-81
2023/08/10 03:15:09;;;;;;;34.40;31.10;;;;;;;11.50;100.00;98266.00;106651;1279;22580;-81
2023/08/10 03:17:41;;;;;;;33.40;30.30;;;;;;;11.44;100.00;98261.46;106680;1279;25240;-81
2023/08/10 03:20:14;;;;;;;33.00;30.00;;;;;;;11.40;100.00;98263.64;106840;1279;22580;-81
2023/08/10 03:22:43;;;;;;;34.20;30.80;;;;;;;11.41;100.00;98270.02;106863;1279;25408;-81
2023/08/10 03:25:11;;;;;;;33.10;30.00;;;;;;;11.40;100.00;98269.95;106874;1279;23541;-81
2023/08/10 03:27:40;;;;;;;33.60;30.50;;;;;;;11.41;100.00;98270.58;106480;1279;22596;-80
2023/08/10 03:30:11;;;;;;;32.30;29.20;;;;;;;11.41;100.00;98272.84;106822;1279;22914;-81
2023/08/10 03:32:40;;;;;;;33.80;30.60;;;;;;;11.45;100.00;98274.41;106784;1259;22576;-81
2023/08/10 03:35:08;;;;;;;31.00;28.10;;;;;;;11.49;100.00;98272.56;106862;1279;23067;-81
2023/08/10 03:37:36;;;;;;;26.80;24.30;;;;;;;11.51;100.00;98275.06;106766;1279;22565;-81
2023/08/10 03:40:07;;;;;;;26.40;24.00;;;;;;;11.52;100.00;98270.50;106757;1279;24394;-79
2023/08/10 03:42:35;;;;;;;28.10;25.20;;;;;;;11.53;100.00;98276.86;106787;1279;22543;-80
2023/08/10 03:45:05;;;;;;;26.40;23.90;;;;;;;11.52;100.00;98275.62;106808;1279;22650;-80
2023/08/10 03:47:33;;;;;;;24.80;22.30;;;;;;;11.52;100.00;98280.76;106849;1279;22801;-80
2023/08/10 03:50:02;;;;;;;31.80;28.70;;;;;;;11.49;100.00;98280.55;106850;1279;24408;-79
2023/08/10 03:52:30;;;;;;;34.00;30.60;;;;;;;11.46;100.00;98285.17;106823;1279;25500;-79
2023/08/10 03:54:58;;;;;;;33.10;30.00;;;;;;;11.41;100.00;98288.59;106844;1279;22523;-79
2023/08/10 03:57:27;;;;;;;30.60;27.40;;;;;;;11.46;100.00;98289.18;106735;1279;22531;-80
2023/08/10 03:59:55;;;;;;;30.10;26.90;;;;;;;11.46;100.00;98288.90;106691;1259;22649;-80
2023/08/10 04:02:23;;;;;;;31.50;28.50;;;;;;;11.44;100.00;98286.94;106693;1279;25510;-80
2023/08/10 04:04:51;;;;;;;27.50;24.80;;;;;;;11.47;100.00;98288.45;106730;1279;22528;-80
2023/08/10 04:07:19;;;;;;;24.20;21.90;;;;;;;11.48;100.00;98291.30;106758;1279;22579;-80
2023/08/10 04:09:47;;;;;;;23.00;20.80;;;;;;;11.43;100.00;98291.81;106848;1279;22551;-81
2023/08/10 04:12:16;;;;;;;25.00;22.30;;;;;;;11.37;100.00;98294.50;106832;1279;22612;-79
2023/08/10 04:14:44;;;;;;;24.10;21.80;;;;;;;11.35;100.00;98298.19;106429;1279;22682;-81
2023/08/10 04:17:12;;;;;;;24.40;22.10;;;;;;;11.37;100.00;98300.00;106822;1279;22783;-79
2023/08/10 04:19:40;;;;;;;24.90;22.50;;;;;;;11.42;100.00;98296.41;106475;1279;22532;-80
2023/08/10 04:22:08;;;;;;;26.40;23.50;;;;;;;11.53;100.00;98298.17;106421;1279;22718;-81
2023/08/10 04:24:36;;;;;;;28.10;25.10;;;;;;;11.60;100.00;98300.70;106812;1279;22641;-80
2023/08/10 04:27:05;;;;;;;26.00;23.20;;;;;;;11.67;100.00;98301.08;106770;1279;22575;-80
2023/08/10 04:29:33;;;;;;;21.20;19.20;;;;;;;11.70;100.00;98302.96;106787;1279;23103;-80
2023/08/10 04:32:02;;;;;;;23.60;21.50;;;;;;;11.66;100.00;98305.16;106819;1279;22826;-79
2023/08/10 04:34:32;;;;;;;19.40;17.60;;;;;;;11.63;100.00;98304.01;106908;1279;22644;-80
2023/08/10 04:37:00;;;;;;;21.10;19.00;;;;;;;11.59;100.00;98310.27;106834;1279;26769;-80
2023/08/10 04:39:28;;;;;;;20.80;18.80;;;;;;;11.61;100.00;98311.06;106511;1279;25534;-79
2023/08/10 04:41:56;;;;;;;18.60;16.70;;;;;;;11.61;100.00;98310.68;106805;1258;24961;-79
2023/08/10 04:44:25;;;;;;;21.00;19.00;;;;;;;11.61;100.00;98315.05;106785;1279;24683;-78
2023/08/10 04:46:53;;;;;;;19.20;17.40;;;;;;;11.65;100.00;98314.92;106504;1279;22552;-77
2023/08/10 04:49:21;;;;;;;21.20;19.00;;;;;;;11.70;100.00;98321.06;106492;1279;24262;-80
2023/08/10 04:51:49;;;;;;;18.90;16.90;;;;;;;11.70;100.00;98318.74;106835;1279;25345;-80
2023/08/10 04:54:17;;;;;;;18.70;17.00;;;;;;;11.66;100.00;98318.54;106422;1279;22527;-78
2023/08/10 04:56:46;;;;;;;19.90;14.90;;;;;;;11.71;100.00;98318.95;106535;1279;25437;-79
2023/08/10 04:59:14;;;;;;;17.30;15.50;;;;;;;11.76;100.00;98318.14;106531;1279;22670;-79
2023/08/10 05:01:42;;;;;;;20.60;18.60;;;;;;;11.79;100.00;98321.02;106945;1271;22577;-83
2023/08/10 05:04:10;;;;;;;21.00;18.80;;;;;;;11.82;100.00;98317.63;106834;1279;25397;-82
2023/08/10 05:06:38;;;;;;;21.50;19.40;;;;;;;11.85;100.00;98318.55;106825;1279;24275;-79
2023/08/10 05:09:06;;;;;;;20.70;18.60;;;;;;;11.92;100.00;98323.58;107025;1279;23324;-83
2023/08/10 05:11:34;;;;;;;19.90;17.90;;;;;;;11.96;100.00;98321.95;106915;1279;24250;-86
2023/08/10 05:14:04;;;;;;;19.70;17.80;;;;;;;12.00;100.00;98323.59;106931;1279;22735;-83
2023/08/10 05:16:32;;;;;;;20.30;18.40;;;;;;;12.03;100.00;98322.42;106904;1279;22530;-82
2023/08/10 05:19:00;;;;;;;20.00;18.00;;;;;;;12.10;100.00;98321.32;106951;1257;25220;-79
2023/08/10 05:21:28;;;;;;;19.90;17.90;;;;;;;12.14;100.00;98320.59;106867;1279;25631;-81
2023/08/10 05:23:56;;;;;;;23.10;21.00;;;;;;;12.20;100.00;98327.81;106939;1279;22614;-82
2023/08/10 05:26:24;;;;;;;22.50;20.40;;;;;;;12.25;100.00;98332.05;106540;1277;22551;-80
2023/08/10 05:28:52;;;;;;;21.20;19.00;;;;;;;12.22;100.00;98335.73;106551;1279;25722;-83
2023/08/10 05:31:20;;;;;;;21.60;19.50;;;;;;;12.19;100.00;98342.77;106854;1279;24230;-81
2023/08/10 05:33:48;;;;;;;20.90;18.80;;;;;;;12.19;100.00;98340.45;106888;1279;22548;-82
2023/08/10 05:36:16;;;;;;;20.10;18.10;;;;;;;12.17;100.00;98343.06;106807;1279;22681;-82
2023/08/10 05:38:44;;;;;;;20.40;18.40;;;;;;;12.20;100.00;98345.17;107073;1279;22641;-82
2023/08/10 05:41:12;;;;;;;18.70;16.80;;;;;;;12.20;100.00;98345.08;107106;1271;22571;-81
2023/08/10 05:43:40;;;;;;;19.30;17.40;;;;;;;12.17;100.00;98346.84;107037;1278;25305;-82
2023/08/10 05:46:08;;;;;;;18.30;16.60;;;;;;;12.19;100.00;98346.88;106992;1278;22928;-81
2023/08/10 05:48:37;;;;;;;21.30;19.30;;;;;;;12.24;100.00;98352.94;106985;1278;22593;-81
2023/08/10 05:51:05;;;;;;;19.20;17.30;;;;;;;12.30;100.00;98362.30;106955;1278;22569;-81
2023/08/10 05:53:33;;;;;;;17.30;15.70;;;;;;;12.32;100.00;98366.80;106975;1271;24353;-81
2023/08/10 05:56:01;;;;;;;18.40;16.70;;;;;;;12.32;100.00;98369.38;106944;1275;22547;-82
2023/08/10 05:58:29;;;;;;;19.10;17.30;;;;;;;12.35;100.00;98374.41;106826;1279;24291;-86
2023/08/10 06:00:57;;;;;;;18.40;16.70;;;;;;;12.41;100.00;98372.90;106827;1279;22660;-86
2023/08/10 06:03:25;;;;;;;19.30;17.30;;;;;;;12.46;100.00;98376.15;106958;1279;22558;-87
2023/08/10 06:05:54;;;;;;;17.70;16.00;;;;;;;12.53;100.00;98380.68;106886;1279;22532;-84
2023/08/10 06:08:23;;;;;;;19.90;17.90;;;;;;;12.63;100.00;98384.48;106921;1279;22654;-84
2023/08/10 06:10:51;;;;;;;18.20;16.30;;;;;;;12.68;100.00;98386.96;106934;1279;25472;-84
2023/08/10 06:13:19;;;;;;;18.80;17.00;;;;;;;12.75;100.00;98387.98;106956;1257;24279;-83
2023/08/10 06:15:47;;;;;;;18.90;16.90;;;;;;;12.82;100.00;98393.21;106891;1279;22568;-83
2023/08/10 06:18:16;;;;;;;18.40;16.40;;;;;;;12.82;100.00;98390.00;106975;1279;22653;-83
2023/08/10 06:20:47;;;;;;;18.20;16.30;;;;;;;12.89;100.00;98389.75;106818;1279;22781;-84
2023/08/10 06:23:15;;;;;;;21.30;19.10;;;;;;;12.94;100.00;98390.63;106778;1279;23145;-83
2023/08/10 06:25:44;;;;;;;22.50;20.40;;;;;;;12.97;100.00;98387.33;106909;1279;22690;-85
2023/08/10 06:28:15;;;;;;;20.10;18.20;;;;;;;13.05;100.00;98392.23;106991;1279;23953;-84
2023/08/10 06:30:43;;;;;;;19.50;17.60;;;;;;;13.08;100.00;98395.81;106883;1279;24445;-85
2023/08/10 06:33:11;;;;;;;20.50;18.40;;;;;;;13.15;100.00;98395.70;106920;1279;25321;-84
2023/08/10 06:35:40;;;;;;;20.10;18.10;;;;;;;13.20;100.00;98394.25;106920;1279;22519;-83
2023/08/10 06:38:08;;;;;;;18.40;16.70;;;;;;;13.29;100.00;98396.58;106881;1279;22531;-83
2023/08/10 06:40:36;;;;;;;19.70;17.60;;;;;;;13.35;100.00;98402.02;106863;1279;22554;-83
2023/08/10 06:43:04;;;;;;;20.30;18.20;;;;;;;13.38;100.00;98403.47;106848;1279;25419;-83
2023/08/10 06:45:52;;;;;;;21.20;19.20;;;;;;;13.34;100.00;98404.91;106751;1280;22570;-83
2023/08/10 06:48:20;;;;;;;18.00;16.10;;;;;;;13.37;100.00;98408.41;106996;1279;25542;-86
2023/08/10 06:50:48;;;;;;;19.30;17.30;;;;;;;13.46;100.00;98418.14;107017;1279;23178;-84
2023/08/10 06:53:16;;;;;;;18.00;16.30;;;;;;;13.57;100.00;98418.74;107077;1272;22476;-83
2023/08/10 06:55:45;;;;;;;18.40;16.80;;;;;;;13.64;100.00;98418.58;107249;1279;22492;-83
2023/08/10 06:58:13;;;;;;;18.20;16.40;;;;;;;13.73;100.00;98419.50;107832;1279;23931;-83
2023/08/10 07:01:01;;;;;;;16.40;14.80;;;;;;;13.80;100.00;98420.05;107634;1279;23273;-84
2023/08/10 07:03:29;;;;;;;16.50;15.00;;;;;;;13.87;100.00;98419.09;107680;1279;22519;-82
2023/08/10 07:05:57;;;;;;;36.80;33.60;;;;;;;13.98;100.00;98415.86;108048;1279;22576;-84
2023/08/10 07:12:39;;;;;;;17.10;15.30;;;;;;;14.27;100.00;98421.20;106721;1279;25481;-84
2023/08/10 07:15:08;;;;;;;16.90;15.30;;;;;;;14.32;100.00;98426.75;106800;1279;22630;-84
2023/08/10 07:17:36;;;;;;;18.00;16.10;;;;;;;14.35;100.00;98428.37;106838;1279;25499;-84
2023/08/10 07:20:06;;;;;;;21.60;17.70;;;;;;;14.43;100.00;98420.47;106854;1279;24124;-84
2023/08/10 07:22:34;;;;;;;20.00;17.70;;;;;;;14.55;100.00;98421.09;106684;1279;24094;-83
2023/08/10 07:25:07;;;;;;;19.70;17.60;;;;;;;14.74;100.00;98417.83;106786;1279;22536;-83
2023/08/10 07:27:35;;;;;;;19.70;16.90;;;;;;;14.94;100.00;98421.29;106773;1279;23292;-83
2023/08/10 07:30:04;;;;;;;19.40;17.30;;;;;;;15.10;100.00;98423.70;106891;1279;22538;-84
2023/08/10 07:32:32;;;;;;;18.40;16.50;;;;;;;15.17;100.00;98433.92;106800;1279;22512;-84
2023/08/10 07:35:00;;;;;;;18.10;16.30;;;;;;;15.12;100.00;98435.65;106856;1279;25520;-85
2023/08/10 07:37:29;;;;;;;17.00;15.10;;;;;;;14.98;100.00;98437.52;106781;1279;22689;-82
2023/08/10 07:39:57;;;;;;;16.80;15.00;;;;;;;14.95;100.00;98435.70;106864;1279;24248;-84
2023/08/10 07:42:25;;;;;;;17.80;15.90;;;;;;;14.97;100.00;98439.71;106943;1280;22963;-83
2023/08/10 07:44:53;;;;;;;16.70;15.10;;;;;;;15.02;100.00;98441.20;107144;1279;24276;-83
2023/08/10 07:47:21;;;;;;;17.40;14.10;;;;;;;15.18;100.00;98442.44;107035;1280;22570;-83
2023/08/10 07:49:49;;;;;;;16.00;14.40;;;;;;;15.21;100.00;98445.05;106925;1279;22667;-83
2023/08/10 07:52:17;;;;;;;15.00;13.60;;;;;;;15.12;100.00;98445.65;106867;1279;22693;-84
2023/08/10 07:54:45;;;;;;;15.80;14.30;;;;;;;15.09;100.00;98440.40;106830;1279;23142;-83
2023/08/10 07:57:13;;;;;;;15.80;14.30;;;;;;;15.25;100.00;98441.46;107982;1280;22683;-84
2023/08/10 07:59:41;;;;;;;18.90;14.80;;;;;;;15.58;100.00;98437.88;109172;1279;23863;-84
2023/08/10 08:02:10;;;;;;;15.50;13.90;;;;;;;15.94;100.00;98439.42;107397;1280;22533;-84
2023/08/10 08:04:38;;;;;;;14.90;13.40;;;;;;;16.17;100.00;98437.92;106949;1279;25350;-85
2023/08/10 08:07:06;;;;;;;16.10;14.70;;;;;;;16.34;100.00;98440.11;106995;1279;25285;-83
2023/08/10 08:09:34;;;;;;;17.60;15.80;;;;;;;16.32;100.00;98437.45;106985;1280;24563;-84
2023/08/10 08:12:03;;;;;;;18.20;14.30;;;;;;;16.27;100.00;98434.91;106980;1279;22592;-84
2023/08/10 08:14:31;;;;;;;16.60;14.10;;;;;;;16.43;100.00;98439.50;106887;1280;22531;-83
2023/08/10 08:16:59;;;;;;;18.10;16.50;;;;;;;16.55;100.00;98440.89;106953;1279;26373;-85
2023/08/10 08:19:27;;;;;;;18.50;16.60;;;;;;;16.42;99.24;98440.79;107018;1279;22651;-85
2023/08/10 08:21:55;;;;;;;19.10;17.20;;;;;;;16.26;99.27;98438.97;107010;1269;22527;-84
2023/08/10 08:24:23;;;;;;;16.30;14.80;;;;;;;16.14;99.96;98437.52;107061;1279;22540;-86
2023/08/10 08:26:51;;;;;;;18.30;16.50;;;;;;;16.11;99.74;98435.70;107200;1276;23243;-83
2023/08/10 08:29:19;;;;;;;18.80;16.80;;;;;;;16.15;99.84;98435.70;107014;1279;22988;-83
2023/08/10 08:31:49;;;;;;;19.00;17.30;;;;;;;16.22;97.78;98433.06;106971;1279;25710;-85
2023/08/10 08:34:17;;;;;;;19.00;17.00;;;;;;;16.32;97.73;98432.54;107681;1279;25236;-83
2023/08/10 08:36:45;;;;;;;18.00;16.20;;;;;;;16.37;96.45;98439.65;106916;1279;24405;-85
2023/08/10 08:39:13;;;;;;;17.40;15.70;;;;;;;16.44;96.66;98435.45;106904;1279;22798;-85
2023/08/10 08:41:42;;;;;;;17.10;15.50;;;;;;;16.29;93.42;98434.05;107001;1279;23019;-85
2023/08/10 08:44:10;;;;;;;16.80;15.10;;;;;;;16.24;93.59;98435.52;106931;1276;22571;-85
2023/08/10 08:46:42;;;;;;;16.60;15.10;;;;;;;16.40;96.67;98432.41;106976;1279;24232;-84
2023/08/10 08:49:10;;;;;;;15.20;13.40;;;;;;;16.57;97.12;98427.75;106860;1278;25335;-84
2023/08/10 08:51:39;;;;;;;16.10;14.40;;;;;;;16.77;91.42;98433.38;106993;1279;25416;-85
2023/08/10 08:54:08;;;;;;;14.30;13.00;;;;;;;16.89;94.70;98430.33;107015;1279;23008;-84
2023/08/10 08:56:36;;;;;;;14.60;13.10;;;;;;;17.20;96.47;98426.58;107027;1279;22547;-84
2023/08/10 08:59:04;;;;;;;14.60;13.10;;;;;;;17.50;97.01;98422.70;107026;1280;22646;-84
2023/08/10 09:01:32;;;;;;;13.00;11.70;;;;;;;17.69;94.69;98426.66;106979;1279;22609;-84
2023/08/10 09:04:00;;;;;;;10.70;9.60;;;;;;;17.65;89.70;98429.02;106932;1279;24511;-84
2023/08/10 09:06:29;;;;;;;11.80;9.50;;;;;;;17.68;87.97;98433.09;106898;1279;22662;-83
2023/08/10 09:08:57;;;;;;;9.80;8.80;;;;;;;17.74;83.70;98435.52;106972;1280;26656;-84
2023/08/10 09:11:25;;;;;;;11.00;9.20;;;;;;;17.82;86.56;98431.79;106927;1279;22575;-84
2023/08/10 09:14:19;;;;;;;10.40;9.10;;;;;;;17.80;86.78;98430.52;106974;1279;22523;-84
2023/08/10 09:16:47;;;;;;;12.20;9.50;;;;;;;17.86;88.06;98427.24;106954;1279;22574;-84
2023/08/10 09:19:17;;;;;;;13.00;9.60;;;;;;;17.96;89.51;98425.52;107023;1279;25395;-84
2023/08/10 09:21:45;;;;;;;11.60;9.40;;;;;;;18.23;90.53;98427.64;106912;1279;25412;-84
2023/08/10 09:24:13;;;;;;;9.70;8.70;;;;;;;18.59;89.99;98425.90;106900;1279;25249;-84
2023/08/10 09:26:41;;;;;;;9.70;8.70;;;;;;;18.70;89.23;98432.50;106852;1279;22567;-84
2023/08/10 09:29:09;;;;;;;8.40;7.30;;;;;;;18.79;83.89;98430.59;106932;1279;25468;-84
2023/08/10 09:31:42;;;;;;;31.00;8.70;;;;;;;18.92;82.62;98426.21;106957;1279;22527;-84
2023/08/10 09:34:13;;;;;;;8.50;7.50;;;;;;;18.96;79.86;98430.90;106945;1279;25406;-84
2023/08/10 09:36:52;;;;;;;13.30;9.10;;;;;;;18.93;78.50;98433.52;107020;1278;22550;-83
2023/08/10 09:39:20;;;;;;;11.30;9.60;;;;;;;18.91;79.08;98432.14;107000;1278;22553;-83
2023/08/10 09:41:55;;;;;;;10.80;8.90;;;;;;;19.03;81.66;98426.91;107061;1259;22524;-83
2023/08/10 09:44:23;;;;;;;9.90;7.70;;;;;;;19.00;81.64;98430.25;107093;1272;24232;-83
2023/08/10 09:46:58;;;;;;;10.10;7.40;;;;;;;18.94;82.37;98425.45;106978;1275;22706;-83
2023/08/10 09:49:26;;;;;;;10.60;6.80;;;;;;;18.84;78.57;98428.09;106978;1263;22780;-84
2023/08/10 09:51:58;;;;;;;11.10;5.80;;;;;;;18.73;80.93;98426.31;107080;1278;22520;-85
2023/08/10 09:54:27;;;;;;;5.90;5.00;;;;;;;18.87;78.35;98423.20;107086;1278;22548;-84
2023/08/10 09:56:55;;;;;;;7.60;5.70;;;;;;;18.83;75.05;98422.92;107046;1272;22747;-82
2023/08/10 09:59:24;;;;;;;7.10;4.90;;;;;;;18.71;73.83;98423.05;107088;1275;22648;-82
2023/08/10 10:01:53;;;;;;;8.30;5.40;;;;;;;18.72;72.63;98423.57;106958;1279;22540;-83
2023/08/10 10:04:23;;;;;;;10.50;6.00;;;;;;;18.61;73.51;98420.74;106988;1257;22573;-81
2023/08/10 10:06:53;;;;;;;8.50;5.30;;;;;;;18.65;74.53;98416.27;106956;1279;22564;-83
2023/08/10 10:09:23;;;;;;;7.00;5.40;;;;;;;18.84;71.16;98415.60;106968;1280;22546;-81
2023/08/10 10:11:54;;;;;;;7.50;6.70;;;;;;;18.93;71.50;98418.70;106939;1279;22632;-80
2023/08/10 10:14:23;;;;;;;6.70;5.50;;;;;;;19.14;73.62;98417.27;106969;1279;24363;-81
2023/08/10 10:16:52;;;;;;;7.80;5.20;;;;;;;19.44;73.27;98415.60;106955;1256;22643;-81
2023/08/10 10:19:21;;;;;;;7.80;4.70;;;;;;;19.68;73.40;98410.46;106987;1272;22584;-81
2023/08/10 10:21:49;;;;;;;6.90;4.60;;;;;;;20.01;74.36;98408.21;106992;1279;25288;-82
2023/08/10 10:24:20;;;;;;;6.90;4.50;;;;;;;20.27;70.50;98407.52;107010;1272;22523;-82
2023/08/10 10:27:17;;;;;;;5.10;4.30;;;;;;;20.35;69.55;98408.73;107003;1276;22572;-82
2023/08/10 10:29:48;;;;;;;5.40;4.00;;;;;;;20.54;70.82;98400.40;106649;1285;22656;-82
2023/08/10 10:32:21;;;;;;;6.00;4.30;;;;;;;20.72;70.07;98398.30;106597;1278;22787;-81
2023/08/10 10:34:51;;;;;;;8.80;4.20;;;;;;;20.93;71.24;98397.31;106530;1285;25413;-82
2023/08/10 10:37:30;;;;;;;4.50;3.60;;;;;;;21.20;71.60;98398.64;106558;1280;24302;-81
2023/08/10 10:40:18;;;;;;;4.60;3.80;;;;;;;21.47;69.62;98399.20;106564;1278;26067;-80
2023/08/10 10:43:07;;;;;;;5.70;4.30;;;;;;;21.61;68.71;98397.69;106680;1283;24262;-81
2023/08/10 10:45:36;;;;;;;5.40;4.20;;;;;;;21.78;68.15;98397.52;106552;1285;22639;-81
2023/08/10 10:48:05;;;;;;;7.40;4.20;;;;;;;22.03;67.07;98396.04;106565;1285;24330;-82
2023/08/10 10:50:35;;;;;;;5.40;4.00;;;;;;;22.12;65.76;98396.29;106098;1278;22684;-81
2023/08/10 10:53:06;;;;;;;8.10;3.70;;;;;;;22.13;62.33;98391.84;106510;1286;25397;-82
2023/08/10 10:55:34;;;;;;;6.70;4.10;;;;;;;21.96;60.53;98399.27;106546;1280;22554;-81
2023/08/10 10:58:04;;;;;;;9.00;4.90;;;;;;;21.76;64.01;98398.79;106469;1286;22665;-81
2023/08/10 11:00:36;;;;;;;7.20;4.30;;;;;;;21.57;58.94;98399.96;106577;1286;25403;-81
2023/08/10 11:03:06;;;;;;;7.20;4.30;;;;;;;21.30;60.18;98400.13;106466;1286;22526;-80
2023/08/10 11:05:36;;;;;;;7.30;5.30;;;;;;;21.28;59.35;98394.07;106521;1286;25384;-80
2023/08/10 11:08:06;;;;;;;7.00;5.40;;;;;;;21.31;59.65;98393.17;106991;1279;22547;-78
2023/08/10 11:10:36;;;;;;;7.90;4.90;;;;;;;21.37;59.16;98393.34;106985;1280;22583;-79
2023/08/10 11:13:07;;;;;;;9.90;5.50;;;;;;;21.41;59.36;98392.56;107713;1280;22647;-80
2023/08/10 11:15:36;;;;;;;17.90;6.10;;;;;;;21.37;59.06;98390.89;108252;1276;22581;-80
2023/08/10 11:18:12;;;;;;;6.60;4.60;;;;;;;21.41;59.93;98385.73;107043;1276;25485;-80
2023/08/10 11:20:43;;;;;;;5.60;4.30;;;;;;;21.78;61.29;98383.47;106703;1280;22541;-80
2023/08/10 11:23:12;;;;;;;6.80;4.60;;;;;;;22.18;61.35;98383.55;107164;1271;25664;-81
2023/08/10 11:25:50;;;;;;;9.20;5.00;;;;;;;22.63;61.15;98383.98;107024;1276;22525;-80
2023/08/10 11:28:22;;;;;;;5.60;4.60;;;;;;;22.91;60.76;98384.99;106615;1279;22524;-80
2023/08/10 11:30:50;;;;;;;5.90;4.50;;;;;;;23.04;59.92;98387.17;106975;1272;22548;-80
2023/08/10 11:33:19;;;;;;;5.60;4.10;;;;;;;23.05;60.75;98386.25;106965;1277;26779;-81
2023/08/10 11:35:50;;;;;;;7.90;4.30;;;;;;;23.26;57.57;98383.72;107064;1280;25365;-81
2023/08/10 11:38:22;;;;;;;5.60;3.80;;;;;;;23.41;58.81;98381.65;107207;1279;24226;-82